Time;durP1;ratioP1;P1;durP2;ratioP2;P2;SDS_P1;SDS_P2;PMS_P1;PMS_P2;Temp;Humidity;BMP_temperature;BMP_pressure;BME280_temperature;BME280_humidity;BME280_pressure;Samples;Min_cycle;Max_cycle;Signal;HPM_P1;HPM_P2
2023/10/17 00:02:27;;;;;;;17.47;6.27;;;;;;;-141.97;52.96;47486.41;4988646;28;20630;-81
2023/10/17 00:04:53;;;;;;;11.33;5.33;;;;;;;-141.97;52.85;47542.16;4988767;28;20571;-82
2023/10/17 00:07:20;;;;;;;10.33;5.30;;;;;;;-141.97;53.21;47611.34;4971370;28;20239;-83
2023/10/17 00:09:48;;;;;;;13.43;5.73;;;;;;;-141.97;52.69;47436.44;4989319;28;20242;-82
2023/10/17 00:14:45;;;;;;;9.63;5.27;;;;;;;-141.97;55.09;47501.78;4992044;28;20199;-81
2023/10/17 00:17:15;;;;;;;8.23;5.47;;;;;;;-141.97;54.48;47542.16;4992198;28;20167;-82
2023/10/17 00:19:41;;;;;;;10.43;5.37;;;;;;;-141.97;53.76;47570.97;4991743;28;20183;-82
2023/10/17 00:22:07;;;;;;;11.03;5.47;;;;;;;-141.97;53.43;47494.09;4991442;28;20209;-82
2023/10/17 00:24:33;;;;;;;10.70;5.43;;;;;;;-141.97;53.90;47453.72;4992016;28;20184;-82
2023/10/17 00:26:59;;;;;;;11.27;5.67;;;;;;;-141.97;53.61;47446.03;4991706;28;20190;-82
2023/10/17 00:29:24;;;;;;;12.57;5.77;;;;;;;-141.97;53.09;47511.38;4991644;28;20179;-82
2023/10/17 00:31:50;;;;;;;15.37;5.70;;;;;;;-141.97;53.05;47492.16;4991534;28;20206;-82
2023/10/17 00:34:21;;;;;;;14.20;5.93;;;;;;;-141.97;53.96;47499.84;5020868;28;20205;-82
2023/10/17 00:36:50;;;;;;;9.57;5.80;;;;;;;-141.97;54.22;47501.78;5033659;28;20618;-83
2023/10/17 00:39:30;;;;;;;13.13;5.37;;;;;;;-141.97;54.43;47426.81;5033564;28;20180;-81
2023/10/17 00:44:39;;;;;;;12.03;5.73;;;;;;;-141.97;56.60;47476.78;5035325;28;20194;-81
2023/10/17 00:47:15;;;;;;;22.13;8.20;;;;;;;-141.97;56.85;47511.38;4998649;28;20171;-82
2023/10/17 00:49:41;;;;;;;14.33;6.33;;;;;;;-141.97;58.39;47492.16;5026994;28;20188;-82
2023/10/17 00:52:24;;;;;;;20.10;8.03;;;;;;;-141.97;58.63;47459.50;5033115;28;20170;-83
2023/10/17 00:54:53;;;;;;;16.70;8.73;;;;;;;-141.97;59.13;47469.09;5033251;28;20636;-83
2023/10/17 00:57:23;;;;;;;20.03;9.17;;;;;;;-141.97;59.52;47522.91;5033092;28;20162;-83
2023/10/17 00:59:53;;;;;;;15.90;8.00;;;;;;;-141.97;60.03;47517.16;5046790;28;20174;-83
2023/10/17 01:02:29;;;;;;;11.07;6.40;;;;;;;-141.97;59.91;47501.78;5047989;28;20228;-84
2023/10/17 01:04:58;;;;;;;16.37;8.50;;;;;;;-141.97;59.32;47503.69;5036682;28;20161;-85
2023/10/17 01:07:29;;;;;;;16.97;8.10;;;;;;;-141.97;58.95;47446.03;5010369;28;20308;-85
2023/10/17 01:09:55;;;;;;;25.67;11.70;;;;;;;-141.97;58.67;47515.22;5030396;28;20549;-82
2023/10/17 01:12:27;;;;;;;42.17;15.40;;;;;;;-141.97;55.29;47422.97;5032325;28;20523;-83
2023/10/17 01:14:53;;;;;;;37.33;15.27;;;;;;;-141.97;54.65;47497.94;5032021;28;20222;-82
2023/10/17 01:17:23;;;;;;;30.67;12.97;;;;;;;-141.97;55.12;47594.03;5032437;28;20241;-82
2023/10/17 01:19:49;;;;;;;27.80;11.77;;;;;;;-141.97;55.94;47492.16;5031435;28;20178;-83
2023/10/17 01:22:14;;;;;;;32.07;13.10;;;;;;;-141.97;55.78;47394.16;5014066;28;20273;-83
2023/10/17 01:24:41;;;;;;;30.70;11.80;;;;;;;-141.97;54.74;47449.88;5014541;28;20170;-81
2023/10/17 01:27:08;;;;;;;26.00;10.77;;;;;;;-141.97;54.57;47501.78;5032206;28;20567;-82
2023/10/17 01:29:34;;;;;;;20.73;9.13;;;;;;;-141.97;54.28;47419.13;5031723;28;20182;-83
2023/10/17 01:31:59;;;;;;;18.93;8.60;;;;;;;-141.97;54.43;47515.22;5014504;28;20166;-83
2023/10/17 01:34:25;;;;;;;17.87;7.63;;;;;;;-141.97;54.13;47494.09;5015640;28;20187;-82
2023/10/17 01:36:50;;;;;;;16.77;7.60;;;;;;;-141.97;53.68;47446.03;5016605;28;20193;-82
2023/10/17 01:39:16;;;;;;;12.73;6.80;;;;;;;-141.97;54.53;47496.00;5008140;28;20360;-82
2023/10/17 01:41:46;;;;;;;11.53;6.50;;;;;;;-141.97;55.98;47511.38;5031843;28;20197;-82
2023/10/17 01:44:12;;;;;;;13.40;6.67;;;;;;;-141.97;56.77;47574.81;5032015;28;20563;-82
2023/10/17 01:46:38;;;;;;;12.60;5.90;;;;;;;-141.97;57.89;47426.81;5014510;28;20326;-82
2023/10/17 01:49:10;;;;;;;12.90;6.37;;;;;;;-141.97;57.88;47542.16;5031171;28;20185;-82
2023/10/17 01:51:36;;;;;;;13.90;6.17;;;;;;;-141.97;56.77;47578.66;5032042;28;20405;-84
2023/10/17 01:54:07;;;;;;;11.20;5.83;;;;;;;-141.97;56.78;47513.31;5032074;28;20405;-83
2023/10/17 01:56:32;;;;;;;13.83;5.50;;;;;;;-141.97;56.71;47544.06;5032353;28;20154;-85
2023/10/17 01:58:59;;;;;;;10.40;5.40;;;;;;;-141.97;56.91;47503.69;5030938;28;20431;-83
2023/10/17 02:01:25;;;;;;;11.53;5.33;;;;;;;-141.97;56.43;47615.19;5012855;28;20198;-84
2023/10/17 02:04:03;;;;;;;16.97;5.70;;;;;;;-141.97;56.65;47488.31;5004304;28;20440;-83
2023/10/17 02:06:33;;;;;;;16.00;7.10;;;;;;;-141.97;55.93;47499.84;5012253;28;20614;-83
2023/10/17 02:08:59;;;;;;;26.00;9.93;;;;;;;-141.97;55.15;47503.69;5030684;28;20428;-82
2023/10/17 02:11:33;;;;;;;25.93;10.63;;;;;;;-141.97;54.74;47492.16;5031346;28;20393;-82
2023/10/17 02:13:59;;;;;;;23.63;10.03;;;;;;;-141.97;53.88;47496.00;5031189;28;20474;-82
2023/10/17 02:16:29;;;;;;;19.63;8.77;;;;;;;-141.97;54.13;47492.16;5033388;28;20446;-82
2023/10/17 02:19:06;;;;;;;22.80;10.90;;;;;;;-141.97;54.08;47524.84;5030981;28;20421;-83
2023/10/17 02:21:31;;;;;;;21.83;9.77;;;;;;;-141.97;54.18;47530.59;5031381;28;20968;-83
2023/10/17 02:23:57;;;;;;;22.67;10.00;;;;;;;-141.97;54.68;47619.03;5020484;28;20496;-83
2023/10/17 02:26:23;;;;;;;23.33;11.07;;;;;;;-141.97;54.97;47521.00;5031223;28;20288;-83
2023/10/17 02:28:59;;;;;;;20.17;10.50;;;;;;;-141.97;55.30;47476.78;5012390;28;20193;-85
2023/10/17 02:31:32;;;;;;;20.07;9.07;;;;;;;-141.97;55.57;47442.19;5031059;28;20621;-82
2023/10/17 02:33:59;;;;;;;16.80;8.00;;;;;;;-141.97;56.55;47561.38;5002673;28;20952;-82
2023/10/17 02:36:26;;;;;;;17.77;7.87;;;;;;;-141.97;56.69;47586.34;5012929;28;20494;-83
2023/10/17 02:38:52;;;;;;;19.00;7.47;;;;;;;-141.97;57.18;47519.06;5031342;28;20405;-83
2023/10/17 02:41:24;;;;;;;15.73;7.20;;;;;;;-141.97;57.30;47551.75;5030850;28;20536;-83
2023/10/17 02:43:53;;;;;;;18.57;8.20;;;;;;;-141.97;57.67;47513.31;5031143;28;20480;-83
2023/10/17 02:46:19;;;;;;;16.40;7.10;;;;;;;-141.97;58.28;47480.63;5030372;28;20812;-83
2023/10/17 02:48:52;;;;;;;18.27;7.83;;;;;;;-141.97;58.44;47565.22;5030568;28;20428;-83
2023/10/17 02:53:46;;;;;;;18.33;7.73;;;;;;;-141.97;58.98;47509.47;5030828;28;20789;-84
2023/10/17 02:56:20;;;;;;;14.63;7.57;;;;;;;-141.97;58.92;47401.84;5030234;28;20416;-83
2023/10/17 02:58:49;;;;;;;19.03;8.00;;;;;;;-141.97;58.65;47499.84;5029976;28;20616;-83
2023/10/17 03:01:15;;;;;;;19.70;7.60;;;;;;;-141.97;59.14;47407.59;5024440;28;20553;-82
2023/10/17 03:03:41;;;;;;;18.60;8.00;;;;;;;-141.97;58.73;47503.69;5031482;28;20416;-82
2023/10/17 03:06:08;;;;;;;17.97;7.20;;;;;;;-141.97;59.05;47457.56;5030687;28;20181;-83
2023/10/17 03:08:36;;;;;;;16.27;6.83;;;;;;;-141.97;59.40;47496.00;5030475;28;20479;-83
2023/10/17 03:11:02;;;;;;;14.73;6.83;;;;;;;-141.97;59.21;47563.28;5013172;28;20467;-83
2023/10/17 03:13:40;;;;;;;16.07;6.70;;;;;;;-141.97;58.89;47515.22;5012804;28;20428;-83
2023/10/17 03:16:26;;;;;;;12.57;6.67;;;;;;;-141.97;59.90;47538.28;5030334;28;20431;-83
2023/10/17 03:18:52;;;;;;;16.33;6.70;;;;;;;-141.97;59.66;47472.94;5036332;28;20404;-83
2023/10/17 03:21:30;;;;;;;17.30;7.00;;;;;;;-141.97;59.14;47497.94;5033507;28;20452;-83
2023/10/17 03:24:00;;;;;;;20.77;7.30;;;;;;;-141.97;59.58;47484.47;5044457;28;20468;-83
2023/10/17 03:26:25;;;;;;;17.07;7.17;;;;;;;-141.97;59.02;47509.47;5047512;28;20496;-83
2023/10/17 03:28:51;;;;;;;21.70;7.40;;;;;;;-141.97;58.86;47484.47;5051792;28;20416;-82
2023/10/17 03:31:22;;;;;;;17.27;7.40;;;;;;;-141.97;59.31;47492.16;5051695;28;20178;-83
2023/10/17 03:33:51;;;;;;;21.17;7.27;;;;;;;-141.97;59.35;47465.25;5040349;28;20159;-83
2023/10/17 03:41:56;;;;;;;17.13;7.67;;;;;;;-141.97;58.73;47530.59;4932212;29;20497;-82
2023/10/17 03:44:28;;;;;;;21.47;8.07;;;;;;;-141.97;58.38;47517.16;4928375;29;20434;-83
2023/10/17 03:46:54;;;;;;;21.77;8.27;;;;;;;-141.97;58.47;47549.84;4909533;29;20859;-82
2023/10/17 03:49:19;;;;;;;17.90;8.03;;;;;;;-141.97;58.09;47438.34;4915328;29;20430;-83
2023/10/17 03:51:54;;;;;;;23.23;8.83;;;;;;;-141.97;58.00;47595.97;4916040;29;20173;-83
2023/10/17 03:54:22;;;;;;;32.80;10.90;;;;;;;-141.97;57.72;47461.41;4915569;29;20204;-83
2023/10/17 03:57:02;;;;;;;35.27;11.63;;;;;;;-141.97;57.50;47501.78;4915667;29;20573;-83
2023/10/17 03:59:38;;;;;;;29.33;11.17;;;;;;;-141.97;57.35;47488.31;4915263;29;20432;-84
2023/10/17 04:02:03;;;;;;;35.40;12.20;;;;;;;-141.97;57.98;47430.66;4915129;29;21046;-83
2023/10/17 04:07:19;;;;;;;25.77;10.13;;;;;;;-141.97;59.59;47494.09;4877585;29;20219;-83
2023/10/17 04:15:20;;;;;;;16.37;8.17;;;;;;;-141.97;58.73;47430.66;4893218;29;20464;-82
2023/10/17 04:17:46;;;;;;;25.43;9.40;;;;;;;-141.97;58.81;47584.44;4920547;28;20996;-82
2023/10/17 04:20:12;;;;;;;21.17;8.80;;;;;;;-141.97;59.17;47511.38;4973401;28;20431;-82
2023/10/17 04:22:39;;;;;;;25.47;10.03;;;;;;;-141.97;59.08;47501.78;4986560;28;20204;-83
2023/10/17 04:25:33;;;;;;;27.80;9.03;;;;;;;-141.97;58.94;47538.28;4972431;28;20578;-81
2023/10/17 04:27:59;;;;;;;28.67;9.97;;;;;;;-141.97;58.96;47530.59;4976108;28;20419;-86
2023/10/17 04:30:35;;;;;;;26.97;9.20;;;;;;;-141.97;59.80;47519.06;4972718;28;20743;-85
2023/10/17 04:33:13;;;;;;;38.10;11.53;;;;;;;-141.97;59.97;47505.63;4975000;28;20965;-84
2023/10/17 04:35:46;;;;;;;29.60;9.93;;;;;;;-141.97;60.45;47496.00;4981030;28;20419;-84
2023/10/17 04:43:47;;;;;;;16.37;6.70;;;;;;;-141.97;62.31;47526.75;4923192;29;20446;-84
2023/10/17 04:46:13;;;;;;;22.27;8.57;;;;;;;-141.97;62.09;47617.09;4897151;29;20437;-84
2023/10/17 04:48:46;;;;;;;73.67;29.40;;;;;;;-141.97;62.72;47617.09;4880969;29;20506;-84
2023/10/17 04:53:49;;;;;;;30.57;11.83;;;;;;;-141.97;61.41;47534.44;4953526;29;20427;-86
2023/10/17 04:56:17;;;;;;;22.10;7.90;;;;;;;-141.97;61.28;47561.38;4952222;28;20458;-84
2023/10/17 05:01:46;;;;;;;17.93;7.60;;;;;;;-141.97;60.61;47492.16;4952618;29;20460;-85
2023/10/17 05:04:33;;;;;;;20.87;10.70;;;;;;;-141.97;60.12;47542.16;4952811;29;20420;-85
2023/10/17 06:17:47;;;;;;;21.90;8.57;;;;;;;-141.97;54.40;47476.78;5030574;28;20722;-78
2023/10/17 06:20:14;;;;;;;28.30;10.87;;;;;;;-141.97;53.73;47530.59;5030764;28;20902;-78
2023/10/17 06:33:35;;;;;;;18.77;8.47;;;;;;;-141.97;52.77;47476.78;5030733;28;20184;-79
2023/10/17 06:36:13;;;;;;;20.13;8.90;;;;;;;-141.97;52.51;47457.56;5030439;28;20552;-77
2023/10/17 06:38:49;;;;;;;18.20;7.90;;;;;;;-141.97;52.16;47509.47;5030020;28;20289;-78
2023/10/17 06:41:16;;;;;;;17.23;8.23;;;;;;;-141.97;52.05;47538.28;5029602;28;20205;-78
2023/10/17 06:43:46;;;;;;;17.27;8.30;;;;;;;-141.97;51.80;47526.75;5030019;28;20556;-78
2023/10/17 06:46:14;;;;;;;21.93;10.57;;;;;;;-141.97;52.12;47526.75;5013034;28;20574;-79
2023/10/17 06:48:49;;;;;;;19.87;8.50;;;;;;;-141.97;52.08;47521.00;5030334;28;20174;-79
2023/10/17 06:53:43;;;;;;;16.50;7.50;;;;;;;-141.97;51.88;47546.00;5030635;28;20295;-79
2023/10/17 06:56:09;;;;;;;15.50;8.27;;;;;;;-141.97;51.87;47503.69;5030682;28;20245;-80
2023/10/17 06:58:36;;;;;;;15.60;7.93;;;;;;;-141.97;50.96;47503.69;5029329;28;20178;-79
2023/10/17 07:01:04;;;;;;;14.60;8.77;;;;;;;-141.97;49.94;47542.16;5030577;28;20178;-80
2023/10/17 07:03:34;;;;;;;21.23;9.20;;;;;;;-141.97;49.54;47513.31;5030182;28;20158;-79
2023/10/17 07:06:11;;;;;;;19.30;8.07;;;;;;;-141.97;49.88;47517.16;5012386;28;20686;-78
2023/10/17 07:08:40;;;;;;;15.53;7.13;;;;;;;-141.97;48.18;47490.25;5029180;28;20221;-77
2023/10/17 07:11:09;;;;;;;20.60;7.57;;;;;;;-141.97;47.46;47542.16;5041866;28;20256;-77
2023/10/17 07:16:57;;;;;;;16.40;7.23;;;;;;;-141.97;48.41;47559.44;5068811;28;20602;-78
2023/10/17 07:24:36;;;;;;;15.53;7.20;;;;;;;-141.97;48.68;47521.00;5032625;28;20260;-78
2023/10/17 07:27:03;;;;;;;14.57;7.63;;;;;;;-141.97;49.40;47530.59;5034716;28;20189;-78
2023/10/17 07:29:33;;;;;;;16.97;7.43;;;;;;;-141.97;48.49;47503.69;5034942;28;20182;-79
2023/10/17 07:32:09;;;;;;;22.97;8.43;;;;;;;-141.97;47.95;47538.28;5034020;28;20193;-78
2023/10/17 07:34:36;;;;;;;13.57;7.47;;;;;;;-141.97;46.72;47507.53;5015673;28;20170;-79
2023/10/17 07:42:40;;;;;;;12.00;6.77;;;;;;;-141.97;46.24;47484.47;5014187;28;20194;-79
2023/10/17 07:45:13;;;;;;;18.27;7.90;;;;;;;-141.97;45.26;47640.16;5015574;28;20553;-80
2023/10/17 07:47:41;;;;;;;13.97;7.33;;;;;;;-141.97;45.06;47526.75;5022278;28;20234;-79
2023/10/17 07:50:14;;;;;;;19.03;8.00;;;;;;;-141.97;44.45;47484.47;5034183;28;20181;-80
2023/10/17 07:52:50;;;;;;;20.07;9.10;;;;;;;-141.97;44.97;47584.44;5007212;28;20186;-79
2023/10/17 07:57:51;;;;;;;16.17;8.37;;;;;;;-141.97;43.81;47590.19;5026543;28;20178;-78
2023/10/17 08:00:26;;;;;;;14.10;7.93;;;;;;;-141.97;43.11;47557.53;5032990;28;20159;-80
2023/10/17 08:03:17;;;;;;;18.17;8.47;;;;;;;-141.97;42.77;47517.16;5032961;28;20650;-79
2023/10/17 08:06:05;;;;;;;16.07;7.77;;;;;;;-141.97;42.44;47546.00;5033814;28;20611;-79
2023/10/17 08:08:42;;;;;;;15.33;7.50;;;;;;;-141.97;43.12;47549.84;5033445;28;20241;-79
2023/10/17 08:11:25;;;;;;;17.20;8.20;;;;;;;-141.97;43.36;47555.59;5034085;28;20154;-79
2023/10/17 08:13:52;;;;;;;17.33;8.47;;;;;;;-141.97;43.24;47503.69;5015580;28;20590;-79
2023/10/17 08:16:24;;;;;;;17.10;8.17;;;;;;;-141.97;42.42;47497.94;5032819;28;20181;-79
2023/10/17 08:18:55;;;;;;;14.47;8.03;;;;;;;-141.97;42.81;47474.88;5033018;28;20217;-79
2023/10/17 08:21:33;;;;;;;22.53;8.27;;;;;;;-141.97;42.42;47553.69;5015823;28;20202;-79
2023/10/17 08:24:00;;;;;;;19.43;8.40;;;;;;;-141.97;42.33;47499.84;4995894;28;20182;-78
2023/10/17 08:26:29;;;;;;;17.13;8.40;;;;;;;-141.97;41.66;47511.38;4994423;28;20248;-79
2023/10/17 08:28:56;;;;;;;16.90;7.03;;;;;;;-141.97;41.50;47507.53;5029065;28;20197;-79
2023/10/17 08:31:35;;;;;;;11.93;5.87;;;;;;;-141.97;41.17;47522.91;5031499;28;20155;-78
2023/10/17 08:36:41;;;;;;;12.90;6.80;;;;;;;-141.97;41.16;47494.09;5037247;28;20197;-79
2023/10/17 08:39:26;;;;;;;12.00;6.40;;;;;;;-141.97;41.72;47513.31;5035361;28;20683;-79
2023/10/17 08:42:11;;;;;;;8.03;5.87;;;;;;;-141.97;42.72;47507.53;5032906;28;20201;-79
2023/10/17 08:44:39;;;;;;;16.77;6.40;;;;;;;-141.97;42.38;47486.41;5032091;28;20190;-81
2023/10/17 08:47:05;;;;;;;9.17;5.83;;;;;;;-141.97;42.08;47626.72;5031860;28;20197;-79
2023/10/17 08:49:31;;;;;;;11.43;5.97;;;;;;;-141.97;41.36;47497.94;5032550;28;20228;-79
2023/10/17 08:52:00;;;;;;;14.53;6.33;;;;;;;-141.97;41.64;47490.25;5032295;28;20154;-80
2023/10/17 08:54:29;;;;;;;9.40;6.30;;;;;;;-141.97;42.51;47511.38;5014285;28;20224;-79
2023/10/17 08:56:59;;;;;;;9.83;6.20;;;;;;;-141.97;42.19;47480.63;5022128;28;20170;-80
2023/10/17 09:05:18;;;;;;;13.50;6.60;;;;;;;-141.97;42.02;47521.00;5052226;28;20182;-79
2023/10/17 09:07:47;;;;;;;14.57;6.60;;;;;;;-141.97;41.89;47505.63;5041188;28;20730;-79
2023/10/17 09:10:18;;;;;;;11.57;6.80;;;;;;;-141.97;41.30;47426.81;5015455;28;20178;-77
2023/10/17 09:12:43;;;;;;;13.53;6.40;;;;;;;-141.97;41.68;47499.84;5034147;28;20634;-80
2023/10/17 09:15:27;;;;;;;11.63;6.47;;;;;;;-141.97;41.91;47469.09;5033968;28;20256;-78
2023/10/17 09:18:08;;;;;;;9.47;6.30;;;;;;;-141.97;42.02;47503.69;5033438;28;20178;-79
2023/10/17 09:20:39;;;;;;;13.43;6.70;;;;;;;-141.97;43.01;47465.25;5032042;28;20168;-78
2023/10/17 09:23:21;;;;;;;13.33;6.30;;;;;;;-141.97;42.52;47544.06;5031484;28;20222;-78
2023/10/17 09:25:53;;;;;;;11.10;6.03;;;;;;;-141.97;41.77;47530.59;5005214;28;20248;-78
2023/10/17 09:28:19;;;;;;;15.67;6.07;;;;;;;-141.97;41.56;47507.53;5030974;28;20205;-78
2023/10/17 09:30:56;;;;;;;11.07;6.03;;;;;;;-141.97;41.26;47540.22;5031406;28;20162;-79
2023/10/17 09:33:31;;;;;;;18.60;6.53;;;;;;;-141.97;40.14;47522.91;5031316;28;20173;-78
2023/10/17 09:35:59;;;;;;;7.93;5.87;;;;;;;-141.97;39.59;47472.94;5031596;28;20231;-80
2023/10/17 09:38:26;;;;;;;10.23;6.20;;;;;;;-141.97;40.85;47584.44;5030963;28;20184;-78
2023/10/17 09:40:55;;;;;;;11.60;6.40;;;;;;;-141.97;40.75;47492.16;5030889;28;20158;-79
2023/10/17 09:43:20;;;;;;;13.57;6.63;;;;;;;-141.97;41.30;47488.31;5030776;28;20285;-79
2023/10/17 09:45:52;;;;;;;10.57;5.70;;;;;;;-141.97;40.43;47557.53;5031359;28;20252;-79
2023/10/17 09:48:24;;;;;;;7.37;6.30;;;;;;;-141.97;40.17;47484.47;5042387;28;20181;-80
2023/10/17 09:50:56;;;;;;;12.87;6.27;;;;;;;-141.97;40.20;47515.22;5047429;28;20245;-80
2023/10/17 09:53:28;;;;;;;10.07;6.37;;;;;;;-141.97;40.34;47507.53;5030888;28;20174;-79
2023/10/17 09:55:56;;;;;;;11.47;7.20;;;;;;;-141.97;39.63;47517.16;5030859;28;20166;-79
2023/10/17 09:58:28;;;;;;;15.90;6.10;;;;;;;-141.97;38.84;47513.31;5032388;28;20802;-79
2023/10/17 10:01:00;;;;;;;9.80;6.10;;;;;;;-141.97;37.74;47488.31;5031200;28;20579;-79
2023/10/17 10:03:28;;;;;;;9.40;6.10;;;;;;;-141.97;37.83;47461.41;5012678;28;20287;-81
2023/10/17 10:05:54;;;;;;;12.10;6.70;;;;;;;-141.97;37.46;47507.53;5030320;28;20186;-80
2023/10/17 10:08:33;;;;;;;10.93;6.97;;;;;;;-141.97;36.68;47486.41;5031579;28;20214;-80
2023/10/17 10:11:00;;;;;;;7.30;5.73;;;;;;;-141.97;37.38;47486.41;5030808;28;20189;-79
2023/10/17 10:13:26;;;;;;;9.77;6.60;;;;;;;-141.97;38.19;47499.84;5030247;28;20173;-78
2023/10/17 10:16:03;;;;;;;11.53;7.20;;;;;;;-141.97;37.99;47474.88;5030283;28;20166;-79
2023/10/17 10:18:35;;;;;;;10.77;7.13;;;;;;;-141.97;38.00;47497.94;5030538;28;20165;-79
2023/10/17 10:21:03;;;;;;;10.30;7.60;;;;;;;-141.97;37.79;47496.00;5031128;28;20513;-79
2023/10/17 10:23:39;;;;;;;15.90;7.97;;;;;;;-141.97;37.20;47517.16;5030216;28;20177;-79
2023/10/17 10:26:11;;;;;;;11.90;7.57;;;;;;;-141.97;36.95;47501.78;5019456;28;20352;-80
2023/10/17 10:28:43;;;;;;;13.13;8.53;;;;;;;-141.97;37.37;47530.59;5012201;28;20181;-79
2023/10/17 10:31:21;;;;;;;10.23;7.50;;;;;;;-141.97;36.95;47469.09;5030624;28;20173;-79
2023/10/17 10:33:48;;;;;;;13.17;7.47;;;;;;;-141.97;37.05;47511.38;5032799;28;20521;-79
2023/10/17 10:36:16;;;;;;;13.10;7.20;;;;;;;-141.97;37.01;47461.41;5050558;28;20161;-78
2023/10/17 10:38:41;;;;;;;10.27;7.17;;;;;;;-141.97;36.84;47449.88;5015254;28;20174;-78
2023/10/17 10:41:07;;;;;;;11.23;6.93;;;;;;;-141.97;37.16;47511.38;5012345;28;20228;-78
2023/10/17 10:43:32;;;;;;;12.40;7.37;;;;;;;-141.97;36.99;47486.41;5030766;28;20170;-78
2023/10/17 10:46:00;;;;;;;9.97;7.10;;;;;;;-141.97;37.19;47492.16;5030689;28;20579;-78
2023/10/17 10:48:26;;;;;;;10.85;7.57;;;;;;;-141.97;37.64;47551.75;5030308;28;20475;-79
2023/10/17 10:50:55;;;;;;;12.03;6.77;;;;;;;-141.97;38.26;47492.16;5030394;28;20650;-79
2023/10/17 10:53:28;;;;;;;10.77;6.80;;;;;;;-141.97;38.64;47482.56;5011626;28;20170;-78
2023/10/17 10:55:55;;;;;;;16.03;7.07;;;;;;;-141.97;38.79;47509.47;5031926;28;20173;-78
2023/10/17 10:58:22;;;;;;;9.90;6.10;;;;;;;-141.97;38.12;47488.31;5030049;28;20166;-79
2023/10/17 11:00:48;;;;;;;8.10;5.50;;;;;;;-141.97;38.27;47474.88;5030260;28;20165;-78
2023/10/17 11:03:14;;;;;;;9.73;5.23;;;;;;;-141.97;37.60;47517.16;5029871;28;20201;-79
2023/10/17 11:05:55;;;;;;;10.13;5.70;;;;;;;-141.97;37.89;47449.88;5030151;28;20505;-79
2023/10/17 11:08:22;;;;;;;7.50;5.00;;;;;;;-141.97;37.89;47469.09;5029577;28;20237;-78
2023/10/17 11:10:48;;;;;;;8.60;5.20;;;;;;;-141.97;37.81;47513.31;5037109;28;20162;-80
2023/10/17 11:13:15;;;;;;;14.20;5.37;;;;;;;-141.97;37.42;47469.09;5049161;28;20172;-81
2023/10/17 11:15:43;;;;;;;10.53;5.30;;;;;;;-141.97;37.71;47505.63;5050561;28;20174;-79
2023/10/17 11:18:10;;;;;;;8.63;5.03;;;;;;;-141.97;37.61;47503.69;5029663;28;20189;-79
2023/10/17 11:20:36;;;;;;;9.80;5.33;;;;;;;-141.97;37.45;47488.31;5029932;28;20205;-79
2023/10/17 11:23:08;;;;;;;7.50;5.20;;;;;;;-141.97;37.75;47499.84;5029964;28;20194;-79
2023/10/17 11:25:34;;;;;;;9.73;5.20;;;;;;;-141.97;38.21;47472.94;5020357;28;20636;-79
2023/10/17 11:28:06;;;;;;;10.70;5.30;;;;;;;-141.97;37.83;47492.16;5029805;28;20174;-79
2023/10/17 11:30:40;;;;;;;8.13;5.33;;;;;;;-141.97;37.62;47494.09;5031981;28;20196;-79
2023/10/17 11:33:10;;;;;;;9.70;4.90;;;;;;;-141.97;37.92;47492.16;5041165;28;20229;-79
2023/10/17 11:35:35;;;;;;;8.57;5.20;;;;;;;-141.97;38.13;47405.69;5028914;28;20201;-80
2023/10/17 11:38:02;;;;;;;9.27;4.87;;;;;;;-141.97;38.01;47413.38;5032175;28;20189;-78
2023/10/17 11:40:38;;;;;;;9.43;5.30;;;;;;;-141.97;38.32;47507.53;5029222;28;20177;-79
2023/10/17 11:43:18;;;;;;;11.50;5.10;;;;;;;-141.97;38.41;47519.06;5029190;28;20272;-79
2023/10/17 11:45:44;;;;;;;9.07;5.00;;;;;;;-141.97;39.52;47515.22;5029590;28;20188;-79
2023/10/17 11:48:26;;;;;;;8.43;5.13;;;;;;;-141.97;38.58;47471.03;5011907;28;20556;-79
2023/10/17 11:51:18;;;;;;;9.83;5.60;;;;;;;-141.97;37.83;47496.00;5030354;28;20657;-83
2023/10/17 11:54:22;;;;;;;9.03;6.10;;;;;;;-141.97;38.76;47465.25;5029543;28;20174;-82
2023/10/17 11:56:48;;;;;;;11.10;6.13;;;;;;;-141.97;38.00;47638.25;4950470;29;20172;-83
2023/10/17 11:59:18;;;;;;;16.50;6.30;;;;;;;-141.97;38.63;47513.31;4950006;29;20612;-84
2023/10/17 12:01:47;;;;;;;11.93;5.30;;;;;;;-141.97;39.01;47384.53;4949793;29;20189;-83
2023/10/17 12:04:16;;;;;;;9.83;4.90;;;;;;;-141.97;39.23;47501.78;4942183;28;20220;-85
2023/10/17 12:06:48;;;;;;;13.33;6.70;;;;;;;-141.97;39.42;47524.84;4941281;29;20249;-84
2023/10/17 12:09:25;;;;;;;10.30;6.33;;;;;;;-141.97;39.16;47657.47;4949464;29;20197;-84
2023/10/17 12:11:52;;;;;;;11.23;6.13;;;;;;;-141.97;38.84;47522.91;4938968;29;20204;-85
2023/10/17 12:14:21;;;;;;;10.40;6.37;;;;;;;-141.97;38.61;47447.97;4953004;28;20534;-84
2023/10/17 12:16:54;;;;;;;10.17;5.93;;;;;;;-141.97;37.97;47601.72;4952717;29;20883;-82
2023/10/17 12:19:26;;;;;;;10.43;5.80;;;;;;;-141.97;38.09;47484.47;4953538;29;20169;-83
2023/10/17 12:21:53;;;;;;;11.90;5.90;;;;;;;-141.97;37.92;47669.00;4949595;29;20336;-84
2023/10/17 12:24:20;;;;;;;9.23;5.07;;;;;;;-141.97;37.78;47496.00;4947067;28;20207;-83
2023/10/17 12:26:46;;;;;;;10.13;5.50;;;;;;;-141.97;37.97;47534.44;4943891;29;20693;-82
2023/10/17 12:29:12;;;;;;;6.47;4.80;;;;;;;-141.97;38.32;47398.00;4952737;29;20165;-82
2023/10/17 12:31:41;;;;;;;10.47;4.70;;;;;;;-141.97;38.99;47496.00;5022892;28;20204;-83
2023/10/17 12:34:08;;;;;;;10.80;5.13;;;;;;;-141.97;38.99;47534.44;5033116;28;20178;-83
2023/10/17 12:36:35;;;;;;;8.30;5.17;;;;;;;-141.97;38.66;47511.38;5033184;28;20159;-84
2023/10/17 12:39:02;;;;;;;14.00;5.80;;;;;;;-141.97;38.22;47474.88;5033490;28;20162;-83
2023/10/17 12:41:30;;;;;;;10.37;5.03;;;;;;;-141.97;38.34;47476.78;5034934;28;20245;-84
2023/10/17 12:43:56;;;;;;;8.60;5.10;;;;;;;-141.97;38.42;47476.78;5037963;28;20174;-86
2023/10/17 12:46:21;;;;;;;9.53;4.87;;;;;;;-141.97;38.72;47436.44;5034137;28;20604;-83
2023/10/17 12:48:47;;;;;;;8.33;4.83;;;;;;;-141.97;38.52;47499.84;5032881;28;20276;-85
2023/10/17 12:51:12;;;;;;;11.93;5.50;;;;;;;-141.97;38.62;47415.28;5033223;28;20177;-87
2023/10/17 12:53:38;;;;;;;7.17;4.90;;;;;;;-141.97;38.99;47551.75;5031582;28;20228;-83
2023/10/17 12:56:05;;;;;;;9.37;4.77;;;;;;;-141.97;39.83;47455.66;5033438;28;20550;-85
2023/10/17 12:58:36;;;;;;;10.70;5.27;;;;;;;-141.97;39.68;47574.81;5014978;28;20239;-85
2023/10/17 13:01:04;;;;;;;9.30;4.93;;;;;;;-141.97;39.64;47438.34;5015088;28;20181;-85
2023/10/17 13:03:33;;;;;;;10.47;5.07;;;;;;;-141.97;39.44;47453.72;5031792;28;20293;-85
2023/10/17 13:05:58;;;;;;;8.23;5.00;;;;;;;-141.97;39.23;47667.06;5032580;28;20174;-85
2023/10/17 13:08:24;;;;;;;8.53;5.40;;;;;;;-141.97;39.72;47511.38;5018535;28;20301;-88
2023/10/17 13:10:50;;;;;;;7.50;4.60;;;;;;;-141.97;39.79;47580.59;5033470;28;20169;-86
2023/10/17 13:13:15;;;;;;;10.80;5.20;;;;;;;-141.97;39.57;47688.22;5032019;28;20255;-86
2023/10/17 13:15:43;;;;;;;8.70;4.83;;;;;;;-141.97;39.76;47484.47;5032453;28;20252;-86
2023/10/17 13:18:10;;;;;;;10.40;5.27;;;;;;;-141.97;40.41;47620.94;5015568;28;20660;-87
2023/10/17 13:20:36;;;;;;;11.60;5.10;;;;;;;-141.97;40.77;47597.88;5027098;28;20158;-88
2023/10/17 13:23:05;;;;;;;13.40;7.47;;;;;;;-141.97;40.28;47476.78;5057693;28;20201;-86
2023/10/17 13:25:40;;;;;;;25.23;10.80;;;;;;;-141.97;40.14;47521.00;5027039;28;20264;-86
2023/10/17 13:28:06;;;;;;;11.37;6.20;;;;;;;-141.97;39.88;47553.69;5036774;28;20202;-86
2023/10/17 13:30:32;;;;;;;12.60;5.77;;;;;;;-141.97;39.88;47522.91;5036949;28;20155;-86
2023/10/17 13:32:58;;;;;;;16.53;6.07;;;;;;;-141.97;39.97;47567.13;5028802;28;20182;-87
2023/10/17 13:35:27;;;;;;;13.27;5.20;;;;;;;-141.97;40.39;47522.91;5032911;28;20231;-85
2023/10/17 13:37:54;;;;;;;9.87;5.40;;;;;;;-141.97;40.72;47513.31;5032027;28;20559;-85
2023/10/17 13:40:22;;;;;;;9.77;5.53;;;;;;;-141.97;40.76;47546.00;5032821;28;20197;-86
2023/10/17 13:42:52;;;;;;;13.23;5.10;;;;;;;-141.97;41.16;47551.75;5033794;28;20198;-87
2023/10/17 13:45:21;;;;;;;6.60;4.80;;;;;;;-141.97;41.44;47472.94;5025835;28;20238;-87